Lady Ann Magee — 9HA2775 — position and weather

sailwx.info

Track history (hours):
 
Tides and Currents Weather Stations Pressure Air Temp Water Temp Dewpoint Dewpoint Depression Visibility Wind Speed Wind Dir Waves Ship Positions

Lady Ann Magee

Last reported at 2014-Oct-08 11:33 UTC. Time now 2014-Oct-31 11:17 UTC.
Position N 43°48' E 007°49'.
Warning: this ship's position is 22 days out of date.

Length 50 m; draft 3.4 m.

Type: Ship. MMSI: 215660000.

Date/timePositionNaut miles runAvg speedWind from/ knotsBaromVisibWave heightAir tempDewpointWater temp
2014-Oct-08 11:33N 43°48' E 007°49'17 7.2
2014-Oct-08 09:11N 43°44' E 007°26'0 0.0
2014-Oct-08 08:23N 43°44' E 007°26'0 0.0
2014-Oct-08 07:29N 43°44' E 007°26'0 0.0
2014-Oct-08 06:17N 43°44' E 007°26'0 0.0
2014-Oct-08 01:23N 43°44' E 007°26'0 0.0
2014-Oct-07 21:29N 43°44' E 007°26'0 0.0
2014-Oct-07 16:23N 43°44' E 007°26'0 0.1
2014-Oct-07 12:26N 43°44' E 007°25'1 0.4
2014-Oct-07 10:33N 43°44' E 007°26'0 0.0
2014-Oct-07 04:33N 43°44' E 007°26'0 0.0
2014-Oct-07 03:21N 43°44' E 007°26'0 0.0
2014-Oct-07 00:09N 43°44' E 007°26'0 0.0
2014-Oct-06 23:15N 43°44' E 007°26'0 0.0
2014-Oct-06 20:15N 43°44' E 007°26'0 0.0
2014-Oct-06 19:27N 43°44' E 007°26'0 0.0
2014-Oct-06 14:15N 43°44' E 007°26'0 0.0
2014-Oct-06 10:15N 43°44' E 007°26'0 0.0
2014-Oct-06 06:15N 43°44' E 007°26'0 0.0
2014-Oct-06 02:33N 43°44' E 007°26'0 0.0
2014-Oct-06 00:15N 43°44' E 007°26'0 0.0
2014-Oct-05 23:03N 43°44' E 007°26'0 0.0
2014-Oct-05 20:27N 43°44' E 007°26'0 0.0
2014-Oct-05 19:33N 43°44' E 007°26'0 0.0
2014-Oct-05 16:15N 43°44' E 007°26'0 0.0
2014-Oct-05 15:09N 43°44' E 007°26'0 0.0
2014-Oct-05 13:21N 43°44' E 007°26'0 0.0
2014-Oct-05 12:04N 43°44' E 007°26'1 2.1
2014-Oct-05 11:33N 43°43' E 007°26'4 3.9
2014-Oct-05 10:30N 43°42' E 007°20'0 0.0
2014-Oct-05 09:30N 43°42' E 007°20'0 0.0
2014-Oct-05 08:30N 43°42' E 007°20'0 0.0
2014-Oct-05 07:30N 43°42' E 007°20'0 0.0
2014-Oct-05 06:30N 43°42' E 007°20'0 0.0
2014-Oct-05 05:18N 43°42' E 007°20'0 0.0
2014-Oct-05 04:30N 43°42' E 007°20'0 0.0
2014-Oct-05 03:30N 43°42' E 007°20'0 0.0
2014-Oct-05 02:24N 43°42' E 007°20'0 0.0
2014-Oct-05 01:30N 43°42' E 007°20'0 0.0
2014-Oct-05 00:30N 43°42' E 007°20'0 0.0
2014-Oct-04 23:30N 43°42' E 007°20'0 0.0
2014-Oct-04 22:24N 43°42' E 007°20'0 0.0
2014-Oct-04 21:30N 43°42' E 007°20'0 0.0
2014-Oct-04 20:06N 43°42' E 007°20'0 0.0
2014-Oct-04 19:30N 43°42' E 007°20'0 0.0
2014-Oct-04 18:30N 43°42' E 007°20'0 0.0
2014-Oct-04 17:30N 43°42' E 007°20'1 0.6
2014-Oct-04 16:33N 43°42' E 007°21'1211.6
2014-Oct-04 15:33N 43°32' E 007°12'1211.9
2014-Oct-04 14:33N 43°24' E 007°01'1212.1
2014-Oct-04 13:32N 43°14' E 006°50'1212.1
2014-Oct-04 12:33N 43°06' E 006°39'1211.5
2014-Oct-04 11:32N 42°57' E 006°27'1111.4
2014-Oct-04 10:33N 42°58' E 006°12'1212.1
2014-Oct-04 09:33N 43°05' E 005°59'3 2.9
2014-Oct-04 08:28N 43°07' E 005°56'0 0.0
2014-Oct-04 07:31N 43°07' E 005°56'0 0.0
2014-Oct-04 06:31N 43°07' E 005°56'0 0.0
2014-Oct-04 05:28N 43°07' E 005°56'0 0.0
2014-Oct-04 04:31N 43°07' E 005°56'0 0.0
2014-Oct-04 03:31N 43°07' E 005°56'0 0.0
2014-Oct-04 02:31N 43°07' E 005°56'0 0.0
2014-Oct-04 01:28N 43°07' E 005°56'0 0.0
2014-Oct-04 00:31N 43°07' E 005°56'0 0.0
2014-Oct-03 23:31N 43°07' E 005°56'0 0.0
2014-Oct-03 22:31N 43°07' E 005°56'0 0.0
2014-Oct-03 21:31N 43°07' E 005°56'0 0.0
2014-Oct-03 19:19N 43°07' E 005°56'0 0.0
2014-Oct-03 10:31N 43°07' E 005°56'0 0.0
2014-Oct-03 09:22N 43°07' E 005°56'0 0.0
2014-Oct-03 08:28N 43°07' E 005°56'0 0.0
2014-Oct-03 07:31N 43°07' E 005°56'0 0.0
2014-Oct-03 06:31N 43°07' E 005°56'0 0.0
2014-Oct-03 05:31N 43°07' E 005°56'0 0.0
2014-Oct-03 04:31N 43°07' E 005°56'0 0.0
2014-Oct-03 03:31N 43°07' E 005°56'0 0.0
2014-Oct-03 02:25N 43°07' E 005°56'0 0.0
2014-Oct-03 01:28N 43°07' E 005°56'0 0.0
2014-Oct-03 00:28N 43°07' E 005°56'0 0.0
2014-Oct-02 23:19N 43°07' E 005°56'0 0.0
2014-Oct-02 22:16N 43°07' E 005°56'0 0.0
2014-Oct-02 21:31N 43°07' E 005°56'0 0.0
2014-Oct-02 20:22N 43°07' E 005°56'0 0.0
2014-Oct-02 19:07N 43°07' E 005°56'0 0.0
2014-Oct-02 17:22N 43°07' E 005°56'0 0.0
2014-Oct-02 11:07N 43°07' E 005°56'0 0.0
2014-Oct-02 09:31N 43°07' E 005°56'0 0.0
2014-Oct-02 08:31N 43°07' E 005°56'0 0.0
2014-Oct-02 07:28N 43°07' E 005°56'0 0.0
2014-Oct-02 06:31N 43°07' E 005°56'0 0.0
2014-Oct-02 05:31N 43°07' E 005°56'0 0.0
2014-Oct-02 04:31N 43°07' E 005°56'0 0.0
2014-Oct-02 03:28N 43°07' E 005°56'0 0.0
2014-Oct-02 02:31N 43°07' E 005°56'0 0.0
2014-Oct-02 01:28N 43°07' E 005°56'0 0.0
2014-Oct-02 00:28N 43°07' E 005°56'0 0.0
2014-Oct-01 23:31N 43°07' E 005°56'0 0.0
2014-Oct-01 22:31N 43°07' E 005°56'0 0.0
2014-Oct-01 21:28N 43°07' E 005°56'0 0.0
2014-Oct-01 20:31N 43°07' E 005°56'0 0.0
2014-Oct-01 19:31N 43°07' E 005°56'0 0.0
2014-Oct-01 10:16N 43°07' E 005°56'0 0.0
2014-Oct-01 08:25N 43°07' E 005°56'0 0.0
2014-Oct-01 07:31N 43°07' E 005°56'0 0.0
2014-Oct-01 06:28N 43°07' E 005°56'0 0.0
2014-Oct-01 05:31N 43°07' E 005°56'0 0.0
2014-Oct-01 04:31N 43°07' E 005°56'0 0.0
2014-Oct-01 03:31N 43°07' E 005°56'0 0.0
2014-Oct-01 02:28N 43°07' E 005°56'0 0.0
2014-Oct-01 01:31N 43°07' E 005°56'0 0.0
2014-Oct-01 00:28N 43°07' E 005°56'0 0.0
2014-Sep-30 23:31N 43°07' E 005°56'0 0.0
2014-Sep-30 22:28N 43°07' E 005°56'0 0.0
2014-Sep-30 21:31N 43°07' E 005°56'0 0.0
2014-Sep-30 20:28N 43°07' E 005°56'0 0.0
2014-Sep-30 19:31N 43°07' E 005°56'0 0.0
2014-Sep-30 18:31N 43°07' E 005°56'0 0.0
2014-Sep-30 17:31N 43°07' E 005°56'0 0.0
2014-Sep-30 15:07N 43°07' E 005°56'0 0.0
2014-Sep-30 14:31N 43°07' E 005°56'0 0.0
2014-Sep-30 13:04N 43°07' E 005°56'0 0.0
2014-Sep-30 12:31N 43°07' E 005°56'0 0.0
2014-Sep-30 11:31N 43°07' E 005°56'0 0.0
2014-Sep-30 10:22N 43°07' E 005°56'0 0.0
2014-Sep-30 09:31N 43°07' E 005°56'0 0.0
2014-Sep-30 08:25N 43°07' E 005°56'0 0.0
2014-Sep-30 07:31N 43°07' E 005°56'0 0.0
2014-Sep-30 06:31N 43°07' E 005°56'0 0.0
2014-Sep-30 05:31N 43°07' E 005°56'0 0.0
2014-Sep-30 04:25N 43°07' E 005°56'0 0.0
2014-Sep-30 03:22N 43°07' E 005°56'0 0.0
2014-Sep-30 02:31N 43°07' E 005°56'0 0.0
2014-Sep-30 01:16N 43°07' E 005°56'0 0.0
2014-Sep-30 00:31N 43°07' E 005°56'0 0.0
2014-Sep-29 23:25N 43°07' E 005°56'0 0.0
2014-Sep-29 21:25N 43°07' E 005°56'0 0.0
2014-Sep-29 20:28N 43°07' E 005°56'0 0.0
2014-Sep-29 19:25N 43°07' E 005°56'0 0.0
2014-Sep-29 16:10N 43°07' E 005°56'0 0.0
2014-Sep-29 08:25N 43°07' E 005°56'0 0.0
2014-Sep-29 07:10N 43°07' E 005°56'0 0.0
2014-Sep-29 06:31N 43°07' E 005°56'0 0.0
2014-Sep-29 05:31N 43°07' E 005°56'0 0.0
2014-Sep-29 04:31N 43°07' E 005°56'0 0.0
2014-Sep-29 03:28N 43°07' E 005°56'0 0.0
2014-Sep-29 02:31N 43°07' E 005°56'0 0.0
2014-Sep-29 01:31N 43°07' E 005°56'0 0.0
2014-Sep-29 00:28N 43°07' E 005°56'0 0.0
2014-Sep-28 23:19N 43°07' E 005°56'0 0.0
2014-Sep-28 22:25N 43°07' E 005°56'0 0.0
2014-Sep-28 21:25N 43°07' E 005°56'0 0.0
2014-Sep-28 20:25N 43°07' E 005°56'0 0.0
2014-Sep-28 19:11N 43°07' E 005°56'0 0.0
2014-Sep-28 18:31N 43°07' E 005°56'0 0.0
2014-Sep-28 17:22N 43°07' E 005°56'0 0.0
2014-Sep-28 16:10N 43°07' E 005°56'0 0.0
2014-Sep-28 13:31N 43°07' E 005°56'  
Track history (hours):
 
Tides and Currents Weather Stations Pressure Air Temp Water Temp Dewpoint Dewpoint Depression Visibility Wind Speed Wind Dir Waves Ship Positions

Lady Ann Magee

Last reported at 2014-Oct-08 11:33 UTC. Time now 2014-Oct-31 11:17 UTC.
Position N 43°48' E 007°49'.
Warning: this ship's position is 22 days out of date.

Length 50 m; draft 3.4 m.

Type: Ship. MMSI: 215660000.

Date/timePositionNaut miles runAvg speedWind from/ knotsBaromVisibWave heightAir tempDewpointWater temp
2014-Oct-08 11:33N 43°48' E 007°49'17 7.2
2014-Oct-08 09:11N 43°44' E 007°26'0 0.0
2014-Oct-08 08:23N 43°44' E 007°26'0 0.0
2014-Oct-08 07:29N 43°44' E 007°26'0 0.0
2014-Oct-08 06:17N 43°44' E 007°26'0 0.0
2014-Oct-08 01:23N 43°44' E 007°26'0 0.0
2014-Oct-07 21:29N 43°44' E 007°26'0 0.0
2014-Oct-07 16:23N 43°44' E 007°26'0 0.1
2014-Oct-07 12:26N 43°44' E 007°25'1 0.4
2014-Oct-07 10:33N 43°44' E 007°26'0 0.0
2014-Oct-07 04:33N 43°44' E 007°26'0 0.0
2014-Oct-07 03:21N 43°44' E 007°26'0 0.0
2014-Oct-07 00:09N 43°44' E 007°26'0 0.0
2014-Oct-06 23:15N 43°44' E 007°26'0 0.0
2014-Oct-06 20:15N 43°44' E 007°26'0 0.0
2014-Oct-06 19:27N 43°44' E 007°26'0 0.0
2014-Oct-06 14:15N 43°44' E 007°26'0 0.0
2014-Oct-06 10:15N 43°44' E 007°26'0 0.0
2014-Oct-06 06:15N 43°44' E 007°26'0 0.0
2014-Oct-06 02:33N 43°44' E 007°26'0 0.0
2014-Oct-06 00:15N 43°44' E 007°26'0 0.0
2014-Oct-05 23:03N 43°44' E 007°26'0 0.0
2014-Oct-05 20:27N 43°44' E 007°26'0 0.0
2014-Oct-05 19:33N 43°44' E 007°26'0 0.0
2014-Oct-05 16:15N 43°44' E 007°26'0 0.0
2014-Oct-05 15:09N 43°44' E 007°26'0 0.0
2014-Oct-05 13:21N 43°44' E 007°26'0 0.0
2014-Oct-05 12:04N 43°44' E 007°26'1 2.1
2014-Oct-05 11:33N 43°43' E 007°26'4 3.9
2014-Oct-05 10:30N 43°42' E 007°20'0 0.0
2014-Oct-05 09:30N 43°42' E 007°20'0 0.0
2014-Oct-05 08:30N 43°42' E 007°20'0 0.0
2014-Oct-05 07:30N 43°42' E 007°20'0 0.0
2014-Oct-05 06:30N 43°42' E 007°20'0 0.0
2014-Oct-05 05:18N 43°42' E 007°20'0 0.0
2014-Oct-05 04:30N 43°42' E 007°20'0 0.0
2014-Oct-05 03:30N 43°42' E 007°20'0 0.0
2014-Oct-05 02:24N 43°42' E 007°20'0 0.0
2014-Oct-05 01:30N 43°42' E 007°20'0 0.0
2014-Oct-05 00:30N 43°42' E 007°20'0 0.0
2014-Oct-04 23:30N 43°42' E 007°20'0 0.0
2014-Oct-04 22:24N 43°42' E 007°20'0 0.0
2014-Oct-04 21:30N 43°42' E 007°20'0 0.0
2014-Oct-04 20:06N 43°42' E 007°20'0 0.0
2014-Oct-04 19:30N 43°42' E 007°20'0 0.0
2014-Oct-04 18:30N 43°42' E 007°20'0 0.0
2014-Oct-04 17:30N 43°42' E 007°20'1 0.6
2014-Oct-04 16:33N 43°42' E 007°21'1211.6
2014-Oct-04 15:33N 43°32' E 007°12'1211.9
2014-Oct-04 14:33N 43°24' E 007°01'1212.1
2014-Oct-04 13:32N 43°14' E 006°50'1212.1
2014-Oct-04 12:33N 43°06' E 006°39'1211.5
2014-Oct-04 11:32N 42°57' E 006°27'1111.4
2014-Oct-04 10:33N 42°58' E 006°12'1212.1
2014-Oct-04 09:33N 43°05' E 005°59'3 2.9
2014-Oct-04 08:28N 43°07' E 005°56'0 0.0
2014-Oct-04 07:31N 43°07' E 005°56'0 0.0
2014-Oct-04 06:31N 43°07' E 005°56'0 0.0
2014-Oct-04 05:28N 43°07' E 005°56'0 0.0
2014-Oct-04 04:31N 43°07' E 005°56'0 0.0
2014-Oct-04 03:31N 43°07' E 005°56'0 0.0
2014-Oct-04 02:31N 43°07' E 005°56'0 0.0
2014-Oct-04 01:28N 43°07' E 005°56'0 0.0
2014-Oct-04 00:31N 43°07' E 005°56'0 0.0
2014-Oct-03 23:31N 43°07' E 005°56'0 0.0
2014-Oct-03 22:31N 43°07' E 005°56'0 0.0
2014-Oct-03 21:31N 43°07' E 005°56'0 0.0
2014-Oct-03 19:19N 43°07' E 005°56'0 0.0
2014-Oct-03 10:31N 43°07' E 005°56'0 0.0
2014-Oct-03 09:22N 43°07' E 005°56'0 0.0
2014-Oct-03 08:28N 43°07' E 005°56'0 0.0
2014-Oct-03 07:31N 43°07' E 005°56'0 0.0
2014-Oct-03 06:31N 43°07' E 005°56'0 0.0
2014-Oct-03 05:31N 43°07' E 005°56'0 0.0
2014-Oct-03 04:31N 43°07' E 005°56'0 0.0
2014-Oct-03 03:31N 43°07' E 005°56'0 0.0
2014-Oct-03 02:25N 43°07' E 005°56'0 0.0
2014-Oct-03 01:28N 43°07' E 005°56'0 0.0
2014-Oct-03 00:28N 43°07' E 005°56'0 0.0
2014-Oct-02 23:19N 43°07' E 005°56'0 0.0
2014-Oct-02 22:16N 43°07' E 005°56'0 0.0
2014-Oct-02 21:31N 43°07' E 005°56'0 0.0
2014-Oct-02 20:22N 43°07' E 005°56'0 0.0
2014-Oct-02 19:07N 43°07' E 005°56'0 0.0
2014-Oct-02 17:22N 43°07' E 005°56'0 0.0
2014-Oct-02 11:07N 43°07' E 005°56'0 0.0
2014-Oct-02 09:31N 43°07' E 005°56'0 0.0
2014-Oct-02 08:31N 43°07' E 005°56'0 0.0
2014-Oct-02 07:28N 43°07' E 005°56'0 0.0
2014-Oct-02 06:31N 43°07' E 005°56'0 0.0
2014-Oct-02 05:31N 43°07' E 005°56'0 0.0
2014-Oct-02 04:31N 43°07' E 005°56'0 0.0
2014-Oct-02 03:28N 43°07' E 005°56'0 0.0
2014-Oct-02 02:31N 43°07' E 005°56'0 0.0
2014-Oct-02 01:28N 43°07' E 005°56'0 0.0
2014-Oct-02 00:28N 43°07' E 005°56'0 0.0
2014-Oct-01 23:31N 43°07' E 005°56'0 0.0
2014-Oct-01 22:31N 43°07' E 005°56'0 0.0
2014-Oct-01 21:28N 43°07' E 005°56'0 0.0
2014-Oct-01 20:31N 43°07' E 005°56'0 0.0
2014-Oct-01 19:31N 43°07' E 005°56'0 0.0
2014-Oct-01 10:16N 43°07' E 005°56'0 0.0
2014-Oct-01 08:25N 43°07' E 005°56'0 0.0
2014-Oct-01 07:31N 43°07' E 005°56'0 0.0
2014-Oct-01 06:28N 43°07' E 005°56'0 0.0
2014-Oct-01 05:31N 43°07' E 005°56'0 0.0
2014-Oct-01 04:31N 43°07' E 005°56'0 0.0
2014-Oct-01 03:31N 43°07' E 005°56'0 0.0
2014-Oct-01 02:28N 43°07' E 005°56'0 0.0
2014-Oct-01 01:31N 43°07' E 005°56'0 0.0
2014-Oct-01 00:28N 43°07' E 005°56'0 0.0
2014-Sep-30 23:31N 43°07' E 005°56'0 0.0
2014-Sep-30 22:28N 43°07' E 005°56'0 0.0
2014-Sep-30 21:31N 43°07' E 005°56'0 0.0
2014-Sep-30 20:28N 43°07' E 005°56'0 0.0
2014-Sep-30 19:31N 43°07' E 005°56'0 0.0
2014-Sep-30 18:31N 43°07' E 005°56'0 0.0
2014-Sep-30 17:31N 43°07' E 005°56'0 0.0
2014-Sep-30 15:07N 43°07' E 005°56'0 0.0
2014-Sep-30 14:31N 43°07' E 005°56'0 0.0
2014-Sep-30 13:04N 43°07' E 005°56'0 0.0
2014-Sep-30 12:31N 43°07' E 005°56'0 0.0
2014-Sep-30 11:31N 43°07' E 005°56'0 0.0
2014-Sep-30 10:22N 43°07' E 005°56'0 0.0
2014-Sep-30 09:31N 43°07' E 005°56'0 0.0
2014-Sep-30 08:25N 43°07' E 005°56'0 0.0
2014-Sep-30 07:31N 43°07' E 005°56'0 0.0
2014-Sep-30 06:31N 43°07' E 005°56'0 0.0
2014-Sep-30 05:31N 43°07' E 005°56'0 0.0
2014-Sep-30 04:25N 43°07' E 005°56'0 0.0
2014-Sep-30 03:22N 43°07' E 005°56'0 0.0
2014-Sep-30 02:31N 43°07' E 005°56'0 0.0
2014-Sep-30 01:16N 43°07' E 005°56'0 0.0
2014-Sep-30 00:31N 43°07' E 005°56'0 0.0
2014-Sep-29 23:25N 43°07' E 005°56'0 0.0
2014-Sep-29 21:25N 43°07' E 005°56'0 0.0
2014-Sep-29 20:28N 43°07' E 005°56'0 0.0
2014-Sep-29 19:25N 43°07' E 005°56'0 0.0
2014-Sep-29 16:10N 43°07' E 005°56'0 0.0
2014-Sep-29 08:25N 43°07' E 005°56'0 0.0
2014-Sep-29 07:10N 43°07' E 005°56'0 0.0
2014-Sep-29 06:31N 43°07' E 005°56'0 0.0
2014-Sep-29 05:31N 43°07' E 005°56'0 0.0
2014-Sep-29 04:31N 43°07' E 005°56'0 0.0
2014-Sep-29 03:28N 43°07' E 005°56'0 0.0
2014-Sep-29 02:31N 43°07' E 005°56'0 0.0
2014-Sep-29 01:31N 43°07' E 005°56'0 0.0
2014-Sep-29 00:28N 43°07' E 005°56'0 0.0
2014-Sep-28 23:19N 43°07' E 005°56'0 0.0
2014-Sep-28 22:25N 43°07' E 005°56'0 0.0
2014-Sep-28 21:25N 43°07' E 005°56'0 0.0
2014-Sep-28 20:25N 43°07' E 005°56'0 0.0
2014-Sep-28 19:11N 43°07' E 005°56'0 0.0
2014-Sep-28 18:31N 43°07' E 005°56'0 0.0
2014-Sep-28 17:22N 43°07' E 005°56'0 0.0
2014-Sep-28 16:10N 43°07' E 005°56'0 0.0
2014-Sep-28 13:31N 43°07' E 005°56'  

Dump ship's entire track history